KASX/ASX METAR and TAF weather

Enter ICAO airport designator
Station Type Date Time Source
KASX METAR 2018/04/27 00:53 UTC NOAA

KASX 270053Z AUTO 00000KT 10SM CLR 07/01 A2990 RMK AO2 SLP129 T00720006


Station Type Date Time Source
KASX Decoded METAR 2018/04/27 00:53 UTC NOAA

ASHLAND KENNEDY MEMORIAL, WI, United States (KASX) 46-33N 090-55W 251M
Apr 26, 2018 - 08:53 PM EDT / 2018.04.27 0053 UTC
Wind: Calm:0
Visibility: 10 mile(s):0
Sky conditions: clear
Temperature: 45.0 F (7.2 C)
Dew Point: 33.1 F (0.6 C)
Relative Humidity: 62%
Pressure (altimeter): 29.9 in. Hg (1012 hPa)
ob: KASX 270053Z AUTO 00000KT 10SM CLR 07/01 A2990 RMK AO2 SLP129 T00720006
cycle: 1

Station Type Date Time Source
KASX TAF UTC NOAA

Error!


Example: see airport list